• Join FlightAware (Why Join?)
  • Login
  • US Flag 
10:32AM EDT


 

Airport Tracker/Info


-or-


 

Live Flight TrackerFlight Track Log ✈ RPA3496 ✈ 15-May-2014 ✈ KBOS - KPHL

Flight Track Log - Related Links

Times and Time Zones

All times are in EDT time to prevent confusion due to time zone crossing. See the RPA3496 flight status page for this flight to view local times or setup timezone preferences in your user account.

Time Position Orientation Groundspeed Altitude Reporting Facility
EDT Latitude Longitude Course Direction KTS MPH feet Rate Location/Type
12:30PM 42.3667 -70.9833 81° East 144 166 600  Level KA90
12:32PM 42.3789 -70.8789 81° East 197 227 3,600 2,640 Climbing Boston Center
12:34PM 42.3500 -70.7000 102° East 279 321 9,900 2,820 Climbing KA90
12:35PM 42.2608 -70.6669 165° South 294 338 12,400 2,400 Climbing Boston Center
12:36PM 42.1761 -70.6297 162° South 316 364 15,100 2,460 Climbing Boston Center
12:37PM 42.0867 -70.6356 183° South 334 384 17,600 2,160 Climbing Boston Center
12:38PM 41.9978 -70.6761 199° South 336 387 19,600 1,980 Climbing Boston Center
12:39PM 41.9039 -70.7178 198° South 354 407 21,700 2,160 Climbing Boston Center
12:40PM 41.7903 -70.7808 202° Southwest 371 427 24,100 2,040 Climbing Boston Center
12:41PM 41.7000 -70.8500 210° Southwest 372 428 25,900 1,080 Climbing Boston Center
12:42PM 41.6031 -70.9233 210° Southwest 398 458 26,400 480 Climbing Boston Center
12:43PM 41.5097 -71.0233 219° Southwest 429 494 27,000 540 Climbing Boston Center
12:44PM 41.4303 -71.1533 231° Southwest 450 518 27,500 480 Climbing Boston Center
12:45PM 41.3422 -71.2944 230° Southwest 451 519 28,000 240 Climbing Boston Center
12:46PM 41.2619 -71.4256 231° Southwest 454 522 28,000  Level Boston Center
12:47PM 41.1722 -71.5697 230° Southwest 455 524 28,000  Level Boston Center
12:48PM 41.0994 -71.6856 230° Southwest 456 525 28,000  Level Boston Center
12:49PM 41.0181 -71.8167 231° Southwest 458 527 28,000  Level Boston Center
12:50PM 40.9253 -71.9639 230° Southwest 459 528 28,000  Level Boston Center
12:51PM 40.8419 -72.0936 230° Southwest 459 528 28,000  Level Boston Center
12:52PM 40.7597 -72.2231 230° Southwest 459 528 28,000  Level Boston Center
12:53PM 40.6714 -72.3622 230° Southwest 459 528 28,000  Level Boston Center
12:54PM 40.5883 -72.4914 230° Southwest 459 528 28,000 -900 Level Boston Center
12:55PM 40.5064 -72.6206 230° Southwest 459 528 26,200 -2,040 Descending Boston Center
12:56PM 40.4272 -72.7431 230° Southwest 444 511 23,800 -2,220 Descending Boston Center
12:57PM 40.3522 -72.8569 229° Southwest 418 481 21,700 -1,920 Descending Boston Center
12:58PM 40.2800 -72.9672 229° Southwest 405 466 20,000 -840 Descending Boston Center
12:59PM 40.2078 -73.0792 230° Southwest 403 464 20,000  Level Boston Center
01:00PM 40.1328 -73.1928 229° Southwest 402 463 20,000  Level Boston Center
01:01PM 40.0592 -73.3039 229° Southwest 402 463 20,000  Level Boston Center
01:02PM 39.9708 -73.4372 229° Southwest 403 464 20,000  Level Boston Center
01:03PM 39.9000 -73.5450 229° Southwest 403 464 20,000  Level Boston Center
01:04PM 39.8292 -73.6564 230° Southwest 402 463 20,000  Level Boston Center
01:05PM 39.7589 -73.7692 231° Southwest 402 463 20,000 -360 Level Boston Center
01:06PM 39.7050 -73.8544 231° Southwest 402 463 19,400 -1,440 Descending Washington Center
01:07PM 39.6397 -73.9586 231° Southwest 384 442 17,600 -1,920 Descending Washington Center
01:08PM 39.5786 -74.0542 230° Southwest 373 429 15,600 -1,920 Descending Washington Center
01:09PM 39.5278 -74.1603 238° Southwest 356 410 13,900 -1,320 Descending Washington Center
01:10PM 39.5272 -74.2894 270° West 339 390 13,000 -1,020 Descending Washington Center
01:11PM 39.5286 -74.4131 271° West 345 397 11,900 -1,080 Descending Washington Center
01:13PM 39.5333 -74.6167 272° West 291 335 10,200 -1,020 Descending Philadelphia TRACON
01:14PM 39.5333 -74.7000 270° West 295 339 9,400 -660 Descending Philadelphia TRACON
01:15PM 39.5333 -74.8167 270° West 283 326 9,000 -240 Descending Philadelphia TRACON
01:16PM 39.5333 -74.9167 270° West 286 329 9,000 -360 Level Philadelphia TRACON
01:17PM 39.5333 -75.0167 270° West 274 315 8,300 -1,080 Descending Philadelphia TRACON
01:18PM 39.5167 -75.1000 255° West 270 311 6,900 -1,200 Descending Philadelphia TRACON
01:19PM 39.5333 -75.2000 282° West 266 306 6,000 -480 Descending Philadelphia TRACON
01:20PM 39.5500 -75.2833 285° West 239 275 6,000  Level Philadelphia TRACON
01:21PM 39.6167 -75.3333 330° Northwest 255 293 6,000  Level Philadelphia TRACON
01:22PM 39.6833 -75.3500 349° North 238 274 6,000 -120 Level Philadelphia TRACON
01:23PM 39.7333 -75.4167 314° West 209 241 5,800 -540 Descending Philadelphia TRACON
01:24PM 39.7167 -75.4667 247° West 196 226 5,000 -420 Descending Philadelphia TRACON
01:25PM 39.7000 -75.5333 252° West 172 198 5,000  Level Philadelphia TRACON
01:26PM 39.7000 -75.6000 270° West 177 204 5,000 -180 Level Philadelphia TRACON
01:27PM 39.7000 -75.6667 270° West 204 235 4,700 -540 Descending Philadelphia TRACON
01:28PM 39.7500 -75.6333 27° Northeast 194 223 4,000 -660 Descending Philadelphia TRACON
01:29PM 39.8000 -75.5833 38° Northeast 196 226 3,400 -540 Descending Philadelphia TRACON
01:30PM 39.8167 -75.5333 67° East 169 194 3,000 -300 Descending Philadelphia TRACON
01:31PM 39.8167 -75.4667 90° East 178 205 2,900 -480 Descending Philadelphia TRACON
01:32PM 39.8333 -75.4000 72° East 176 203 2,100 -840 Descending Philadelphia TRACON
01:33PM 39.8500 -75.3500 67° East 146 168 1,300 -780 Descending Philadelphia TRACON
01:34PM 39.8500 -75.3167 90° East 134 154 600 -720 Descending Philadelphia TRACON
01:36PM 39.8667 -75.2333 54° Northeast  Level FlightAware Approximate
01:43PM 39.8722 -75.2409 54° Northeast  Level Estimated